createdAt,value
2023-05-12T00:00:22.782Z,8.00
2023-05-12T00:05:31.692Z,7.80
2023-05-12T00:10:39.987Z,7.70
2023-05-12T00:15:49.068Z,7.60
2023-05-12T00:20:57.868Z,7.60
2023-05-12T00:26:06.335Z,7.50
2023-05-12T00:31:14.769Z,7.50
2023-05-12T00:36:23.655Z,7.40
2023-05-12T00:41:31.819Z,7.30
2023-05-12T00:46:40.705Z,7.30
2023-05-12T00:51:49.034Z,7.30
2023-05-12T00:56:58.046Z,7.20
2023-05-12T01:02:06.812Z,7.20
2023-05-12T01:07:15.640Z,7.20
2023-05-12T01:12:24.208Z,7.10
2023-05-12T01:17:33.385Z,7.00
2023-05-12T01:22:41.876Z,6.90
2023-05-12T01:27:50.534Z,6.90
2023-05-12T01:32:59.185Z,6.80
2023-05-12T01:38:08.004Z,6.80
2023-05-12T01:43:16.448Z,6.80
2023-05-12T01:48:25.039Z,6.80
2023-05-12T01:53:33.350Z,6.70
2023-05-12T01:58:42.386Z,6.70
2023-05-12T02:03:51.206Z,6.60
2023-05-12T02:08:59.862Z,6.60
2023-05-12T02:14:08.539Z,6.60
2023-05-12T02:19:17.887Z,6.60
2023-05-12T02:24:27.177Z,6.50
2023-05-12T02:29:35.851Z,6.60
2023-05-12T02:34:44.651Z,6.60
2023-05-12T02:39:53.845Z,6.60
2023-05-12T02:45:02.317Z,6.60
2023-05-12T02:50:11.538Z,6.70
2023-05-12T02:55:19.834Z,6.70
2023-05-12T03:00:28.943Z,6.70
2023-05-12T03:05:38.011Z,6.80
2023-05-12T03:10:47.094Z,7.00
2023-05-12T03:15:55.943Z,7.10
2023-05-12T03:21:05.092Z,7.30
2023-05-12T03:26:13.524Z,7.40
2023-05-12T03:31:22.255Z,7.60
2023-05-12T03:36:31.576Z,7.80
2023-05-12T03:41:40.654Z,8.10
2023-05-12T03:46:49.662Z,8.30
2023-05-12T03:51:58.765Z,8.60
2023-05-12T03:57:07.438Z,8.90
2023-05-12T04:02:16.888Z,9.20
2023-05-12T04:07:25.496Z,9.50
2023-05-12T04:12:34.346Z,9.90
2023-05-12T04:17:43.006Z,10.20
2023-05-12T04:22:52.676Z,10.60
2023-05-12T04:28:01.309Z,11.00
2023-05-12T04:33:10.217Z,11.40
2023-05-12T04:38:18.828Z,11.90
2023-05-12T04:48:35.885Z,12.60
2023-05-12T04:53:44.739Z,13.10
2023-05-12T04:58:53.260Z,13.50
2023-05-12T05:04:01.904Z,14.00
2023-05-12T05:09:11.519Z,14.40
2023-05-12T05:14:20.151Z,14.80
2023-05-12T05:19:39.030Z,15.20
2023-05-12T05:24:37.351Z,15.50
2023-05-12T05:29:45.953Z,15.90
2023-05-12T05:34:55.148Z,16.30
2023-05-12T05:40:03.718Z,16.70
2023-05-12T05:45:12.818Z,17.10
2023-05-12T05:50:21.665Z,17.50
2023-05-12T05:55:30.569Z,17.90
2023-05-12T06:00:39.526Z,18.20
2023-05-12T06:10:57.059Z,18.80
2023-05-12T06:21:14.950Z,19.40
2023-05-12T06:26:23.904Z,19.80
2023-05-12T06:31:32.471Z,19.90
2023-05-12T06:36:41.080Z,20.10
2023-05-12T06:41:50.187Z,20.30
2023-05-12T06:46:58.752Z,20.50
2023-05-12T06:52:07.488Z,20.70
2023-05-12T06:57:16.458Z,20.80
2023-05-12T07:02:25.680Z,21.00
2023-05-12T07:07:35.051Z,21.10
2023-05-12T07:12:43.931Z,21.40
2023-05-12T07:17:53.086Z,21.60
2023-05-12T07:23:01.923Z,21.80
2023-05-12T07:28:11.374Z,22.00
2023-05-12T07:33:20.250Z,22.20
2023-05-12T07:38:29.107Z,22.40
2023-05-12T07:43:37.542Z,22.50
2023-05-12T07:48:47.023Z,22.80
2023-05-12T07:53:55.578Z,22.70
2023-05-12T07:59:04.354Z,22.70
2023-05-12T08:04:12.868Z,22.90
2023-05-12T08:09:21.683Z,23.20
2023-05-12T08:14:30.272Z,23.30
2023-05-12T08:19:39.327Z,23.10
2023-05-12T08:24:48.206Z,23.10
2023-05-12T08:29:57.394Z,23.20
2023-05-12T08:35:05.974Z,23.00
2023-05-12T08:40:14.965Z,23.30
2023-05-12T08:45:23.972Z,23.70
2023-05-12T08:50:33.027Z,24.00
2023-05-12T08:55:41.468Z,24.10
2023-05-12T09:00:49.141Z,23.70
2023-05-12T09:05:58.218Z,23.30
2023-05-12T09:11:07.633Z,23.10
2023-05-12T09:16:16.787Z,23.10
2023-05-12T09:21:25.767Z,23.80
2023-05-12T09:26:34.430Z,24.40
2023-05-12T09:31:44.122Z,24.80
2023-05-12T09:36:52.872Z,25.40
2023-05-12T09:42:01.601Z,26.10
2023-05-12T09:47:10.834Z,26.10
2023-05-12T09:52:19.919Z,25.70
2023-05-12T09:57:28.585Z,24.90
2023-05-12T10:02:38.718Z,24.60
2023-05-12T10:07:37.053Z,24.90
2023-05-12T10:12:46.521Z,25.50
2023-05-12T10:17:55.082Z,25.80
2023-05-12T10:23:04.486Z,25.80
2023-05-12T10:28:13.484Z,25.50
2023-05-12T10:33:22.295Z,25.10
2023-05-12T10:38:30.748Z,25.10
2023-05-12T10:43:39.593Z,25.50
2023-05-12T10:48:48.513Z,26.30
2023-05-12T10:53:58.533Z,27.10
2023-05-12T10:58:57.572Z,26.80
2023-05-12T11:04:10.191Z,25.90
2023-05-12T11:09:09.190Z,25.00
2023-05-12T11:14:18.311Z,24.20
2023-05-12T11:19:27.425Z,23.70
2023-05-12T11:24:36.218Z,23.50
2023-05-12T11:29:45.281Z,23.90
2023-05-12T11:34:54.497Z,24.60
2023-05-12T11:40:03.388Z,25.70
2023-05-12T11:45:12.480Z,26.90
2023-05-12T11:50:21.334Z,27.80
2023-05-12T11:55:30.800Z,28.10
2023-05-12T12:00:39.449Z,27.80
2023-05-12T12:05:48.209Z,26.80
2023-05-12T12:11:03.609Z,25.80
2023-05-12T12:16:00.318Z,25.40
2023-05-12T12:21:09.146Z,25.30
2023-05-12T12:26:18.499Z,25.20
2023-05-12T12:31:27.168Z,25.20
2023-05-12T12:36:36.249Z,25.10
2023-05-12T12:41:45.046Z,25.20
2023-05-12T12:46:54.329Z,25.30
2023-05-12T12:52:03.058Z,25.30
2023-05-12T12:57:11.854Z,25.60
2023-05-12T13:02:20.663Z,26.20
2023-05-12T13:07:29.559Z,26.50
2023-05-12T13:12:38.222Z,26.00
2023-05-12T13:17:47.268Z,25.90
2023-05-12T13:22:56.769Z,26.00
2023-05-12T13:28:05.634Z,25.70
2023-05-12T13:33:14.907Z,25.60
2023-05-12T13:38:23.826Z,25.60
2023-05-12T13:43:32.968Z,26.10
2023-05-12T13:48:41.646Z,26.10
2023-05-12T13:53:50.142Z,25.70
2023-05-12T13:58:59.213Z,25.40
2023-05-12T14:04:08.295Z,25.20
2023-05-12T14:09:17.610Z,25.20
2023-05-12T14:14:26.434Z,24.80
2023-05-12T14:19:35.777Z,24.50
2023-05-12T14:24:44.880Z,24.30
2023-05-12T14:29:54.075Z,24.20
2023-05-12T14:35:02.523Z,24.60
2023-05-12T14:40:11.133Z,24.70
2023-05-12T14:45:20.176Z,24.80
2023-05-12T14:50:29.416Z,25.10
2023-05-12T14:55:37.807Z,25.30
2023-05-12T15:00:50.579Z,25.30
2023-05-12T15:10:58.720Z,25.30
2023-05-12T15:16:07.687Z,25.40
2023-05-12T15:21:16.885Z,25.90
2023-05-12T15:26:32.727Z,26.20
2023-05-12T15:31:34.787Z,26.50
2023-05-12T15:36:43.246Z,25.50
2023-05-12T15:41:51.944Z,24.50
2023-05-12T15:47:00.741Z,23.80
2023-05-12T15:52:09.509Z,23.20
2023-05-12T15:57:18.417Z,23.10
2023-05-12T16:02:28.620Z,23.10
2023-05-12T16:07:26.967Z,22.90
2023-05-12T16:12:35.721Z,22.80
2023-05-12T16:17:44.509Z,22.90
2023-05-12T16:22:53.364Z,22.80
2023-05-12T16:28:01.880Z,23.70
2023-05-12T16:33:10.802Z,25.10
2023-05-12T16:38:19.625Z,26.50
2023-05-12T16:43:28.913Z,27.30
2023-05-12T16:48:38.289Z,27.70
2023-05-12T16:53:47.140Z,27.70
2023-05-12T16:58:55.882Z,27.60
2023-05-12T17:04:06.006Z,27.50
2023-05-12T17:09:04.255Z,26.90
2023-05-12T17:14:13.679Z,25.70
2023-05-12T17:19:22.054Z,24.20
2023-05-12T17:24:31.651Z,23.00
2023-05-12T17:29:40.077Z,22.00
2023-05-12T17:34:49.323Z,21.10
2023-05-12T17:39:58.028Z,20.40
2023-05-12T17:45:07.147Z,19.70
2023-05-12T17:50:15.847Z,19.20
2023-05-12T18:05:42.537Z,17.80
2023-05-12T18:10:51.424Z,17.50
2023-05-12T18:16:00.604Z,17.10
2023-05-12T18:21:09.317Z,16.80
2023-05-12T18:26:18.603Z,16.50
2023-05-12T18:31:27.655Z,16.30
2023-05-12T18:36:36.867Z,16.10
2023-05-12T18:41:45.382Z,15.90
2023-05-12T18:46:54.333Z,15.70
2023-05-12T18:52:02.651Z,15.50
2023-05-12T18:57:11.822Z,15.30
2023-05-12T19:02:20.855Z,15.10
2023-05-12T19:07:30.354Z,14.80
2023-05-12T19:12:39.154Z,14.70
2023-05-12T19:17:49.048Z,14.50
2023-05-12T19:22:58.026Z,14.40
2023-05-12T19:28:07.232Z,14.20
2023-05-12T19:33:17.228Z,14.10
2023-05-12T19:38:24.460Z,14.00
2023-05-12T19:43:32.893Z,13.70
2023-05-12T19:48:41.518Z,13.50
2023-05-12T19:53:50.022Z,13.30
2023-05-12T19:58:58.840Z,13.10
2023-05-12T20:04:07.920Z,12.90
2023-05-12T20:09:16.954Z,12.80
2023-05-12T20:14:25.171Z,12.80
2023-05-12T20:19:33.897Z,12.70
2023-05-12T20:24:42.507Z,12.60
2023-05-12T20:29:51.400Z,12.50
2023-05-12T20:35:00.429Z,12.40
2023-05-12T20:40:09.322Z,12.40
2023-05-12T20:45:17.954Z,12.40
2023-05-12T20:50:27.145Z,12.40
2023-05-12T20:55:35.585Z,12.30
2023-05-12T21:00:44.894Z,12.30
2023-05-12T21:05:53.066Z,12.20
2023-05-12T21:11:01.440Z,12.00
2023-05-12T21:16:09.962Z,11.80
2023-05-12T21:21:18.995Z,11.70
2023-05-12T21:26:27.620Z,11.60
2023-05-12T21:31:37.599Z,11.50
2023-05-12T21:36:46.164Z,11.50
2023-05-12T21:41:55.015Z,11.50
2023-05-12T21:47:03.438Z,11.30
2023-05-12T21:52:12.281Z,11.30
2023-05-12T21:57:21.051Z,11.20
2023-05-12T22:02:30.150Z,11.10
2023-05-12T22:07:38.885Z,11.10
2023-05-12T22:12:48.349Z,11.10
2023-05-12T22:17:56.659Z,11.10
2023-05-12T22:23:05.711Z,11.00
2023-05-12T22:28:14.373Z,11.00
2023-05-12T22:33:22.824Z,10.90
2023-05-12T22:38:31.444Z,10.80
2023-05-12T22:43:40.102Z,10.60
2023-05-12T22:48:49.113Z,10.50
2023-05-12T22:53:58.084Z,10.50
2023-05-12T22:59:07.034Z,10.50
2023-05-12T23:04:16.155Z,10.50
2023-05-12T23:09:24.705Z,10.30
2023-05-12T23:14:33.298Z,10.30
2023-05-12T23:19:41.800Z,10.30
2023-05-12T23:24:50.960Z,10.30
2023-05-12T23:29:59.302Z,10.30
2023-05-12T23:35:08.399Z,10.30
2023-05-12T23:40:16.653Z,10.20
2023-05-12T23:45:25.586Z,10.10
2023-05-12T23:50:34.278Z,10.00
2023-05-12T23:55:42.994Z,9.90
